createdAt,value
2022-07-27T00:01:19.653Z,18.41
2022-07-27T00:03:47.741Z,18.33
2022-07-27T00:06:15.860Z,18.76
2022-07-27T00:08:43.443Z,18.58
2022-07-27T00:11:11.582Z,18.80
2022-07-27T00:13:40.694Z,18.61
2022-07-27T00:16:08.454Z,18.29
2022-07-27T00:18:35.984Z,18.14
2022-07-27T00:21:03.522Z,18.63
2022-07-27T00:23:31.061Z,19.16
2022-07-27T00:25:58.563Z,18.84
2022-07-27T00:28:26.112Z,18.29
2022-07-27T00:30:54.975Z,17.81
2022-07-27T00:33:22.504Z,17.78
2022-07-27T00:35:50.012Z,18.19
2022-07-27T00:38:17.752Z,18.50
2022-07-27T00:40:46.035Z,18.44
2022-07-27T00:43:14.077Z,17.71
2022-07-27T00:45:41.697Z,17.00
2022-07-27T00:48:10.657Z,16.69
2022-07-27T00:50:39.406Z,16.85
2022-07-27T00:53:06.971Z,17.17
2022-07-27T00:55:35.109Z,17.85
2022-07-27T00:58:04.921Z,18.50
2022-07-27T01:00:32.556Z,18.77
2022-07-27T01:03:02.359Z,18.94
2022-07-27T01:05:36.370Z,18.78
2022-07-27T01:08:07.742Z,18.83
2022-07-27T01:10:35.432Z,18.79
2022-07-27T01:13:16.430Z,19.01
2022-07-27T01:15:44.352Z,18.87
2022-07-27T01:18:13.763Z,18.83
2022-07-27T01:20:43.273Z,18.66
2022-07-27T01:23:12.368Z,18.05
2022-07-27T01:25:42.361Z,18.17
2022-07-27T01:28:09.880Z,18.31
2022-07-27T01:30:37.409Z,18.18
2022-07-27T01:33:06.647Z,18.22
2022-07-27T01:35:34.677Z,18.18
2022-07-27T01:38:02.437Z,17.99
2022-07-27T01:40:31.380Z,17.83
2022-07-27T01:42:58.945Z,17.93
2022-07-27T01:45:26.677Z,17.70
2022-07-27T01:47:54.291Z,17.72
2022-07-27T01:50:21.832Z,17.84
2022-07-27T01:52:49.592Z,17.78
2022-07-27T01:55:17.110Z,16.99
2022-07-27T01:57:46.079Z,17.50
2022-07-27T02:00:14.743Z,17.67
2022-07-27T02:02:43.198Z,17.42
2022-07-27T02:05:12.424Z,17.47
2022-07-27T02:07:40.590Z,17.24
2022-07-27T02:10:09.103Z,16.89
2022-07-27T02:12:35.873Z,17.28
2022-07-27T02:15:06.435Z,17.84
2022-07-27T02:17:35.176Z,18.02
2022-07-27T02:20:03.051Z,17.84
2022-07-27T02:22:31.220Z,16.95
2022-07-27T02:24:59.114Z,16.65
2022-07-27T02:27:26.733Z,17.33
2022-07-27T02:29:54.415Z,17.61
2022-07-27T02:32:23.292Z,17.45
2022-07-27T02:34:51.429Z,17.47
2022-07-27T02:37:18.952Z,17.37
2022-07-27T02:39:46.452Z,17.93
2022-07-27T02:42:13.968Z,18.11
2022-07-27T02:44:41.579Z,18.07
2022-07-27T02:47:09.102Z,18.04
2022-07-27T02:49:38.224Z,17.97
2022-07-27T02:52:06.844Z,17.52
2022-07-27T02:54:34.906Z,16.80
2022-07-27T02:57:04.714Z,16.48
2022-07-27T02:59:32.319Z,16.37
2022-07-27T03:01:59.852Z,16.64
2022-07-27T03:04:27.844Z,17.60
2022-07-27T03:06:56.706Z,17.47
2022-07-27T03:09:32.860Z,17.47
2022-07-27T03:12:01.174Z,18.00
2022-07-27T03:14:29.292Z,18.04
2022-07-27T03:16:56.844Z,18.12
2022-07-27T03:19:29.728Z,18.16
2022-07-27T03:21:59.219Z,18.14
2022-07-27T03:24:26.705Z,18.20
2022-07-27T03:26:54.208Z,18.28
2022-07-27T03:29:21.724Z,18.43
2022-07-27T03:31:49.227Z,18.48
2022-07-27T03:34:17.483Z,18.56
2022-07-27T03:36:46.095Z,18.23
2022-07-27T03:39:15.216Z,18.18
2022-07-27T03:41:42.935Z,18.32
2022-07-27T03:44:10.451Z,18.25
2022-07-27T03:46:37.957Z,18.42
2022-07-27T03:49:14.691Z,17.94
2022-07-27T03:51:43.021Z,17.74
2022-07-27T03:54:10.745Z,18.13
2022-07-27T03:56:39.616Z,18.28
2022-07-27T03:59:07.140Z,18.77
2022-07-27T04:01:34.808Z,19.16
2022-07-27T04:04:02.641Z,19.17
2022-07-27T04:06:30.245Z,19.04
2022-07-27T04:09:07.747Z,18.67
2022-07-27T04:11:37.713Z,18.52
2022-07-27T04:14:13.011Z,18.20
2022-07-27T04:16:41.282Z,18.55
2022-07-27T04:19:09.208Z,19.20
2022-07-27T04:21:37.435Z,19.12
2022-07-27T04:24:05.793Z,19.44
2022-07-27T04:26:33.479Z,19.88
2022-07-27T04:29:00.988Z,20.10
2022-07-27T04:31:29.938Z,19.66
2022-07-27T04:33:57.468Z,19.33
2022-07-27T04:36:25.124Z,19.04
2022-07-27T04:38:52.624Z,18.57
2022-07-27T04:41:20.171Z,18.31
2022-07-27T04:43:47.684Z,17.94
2022-07-27T04:46:15.726Z,17.69
2022-07-27T04:48:49.560Z,17.62
2022-07-27T04:51:18.623Z,17.50
2022-07-27T04:53:53.472Z,17.45
2022-07-27T04:56:26.307Z,17.72
2022-07-27T04:58:54.152Z,17.85
2022-07-27T05:01:22.932Z,17.58
2022-07-27T05:03:52.236Z,17.59
2022-07-27T05:06:20.058Z,17.55
2022-07-27T05:08:47.737Z,17.68
2022-07-27T05:11:15.378Z,18.08
2022-07-27T05:13:42.916Z,17.83
2022-07-27T05:16:11.704Z,18.11
2022-07-27T05:18:39.913Z,18.19
2022-07-27T05:21:09.677Z,17.65
2022-07-27T05:23:37.283Z,17.88
2022-07-27T05:26:05.274Z,18.07
2022-07-27T05:28:32.863Z,17.89
2022-07-27T05:31:00.387Z,17.67
2022-07-27T05:33:27.889Z,18.01
2022-07-27T05:35:56.367Z,18.14
2022-07-27T05:38:25.216Z,18.33
2022-07-27T05:40:53.141Z,18.80
2022-07-27T05:43:20.658Z,18.66
2022-07-27T05:45:48.296Z,18.67
2022-07-27T05:48:16.501Z,19.26
2022-07-27T05:50:44.027Z,19.73
2022-07-27T05:53:11.579Z,20.02
2022-07-27T05:55:58.465Z,20.46
2022-07-27T05:58:27.043Z,20.79
2022-07-27T06:00:54.693Z,20.08
2022-07-27T06:03:22.604Z,19.38
2022-07-27T06:05:50.864Z,19.83
2022-07-27T06:08:17.502Z,20.33
2022-07-27T06:10:46.359Z,20.71
2022-07-27T06:13:13.939Z,21.27
2022-07-27T06:15:41.525Z,21.33
2022-07-27T06:18:16.706Z,21.03
2022-07-27T06:20:45.695Z,21.81
2022-07-27T06:23:13.438Z,21.76
2022-07-27T06:25:40.952Z,21.60
2022-07-27T06:28:09.960Z,21.99
2022-07-27T06:30:37.480Z,22.78
2022-07-27T06:33:06.206Z,22.18
2022-07-27T06:35:34.044Z,20.83
2022-07-27T06:38:01.798Z,21.35
2022-07-27T06:40:30.110Z,21.08
2022-07-27T06:42:58.260Z,21.29
2022-07-27T06:45:27.599Z,21.45
2022-07-27T06:47:55.103Z,21.42
2022-07-27T06:50:23.342Z,22.22
2022-07-27T06:52:50.926Z,22.54
2022-07-27T06:55:18.628Z,23.72
2022-07-27T06:57:46.369Z,24.12
2022-07-27T07:00:15.386Z,23.29
2022-07-27T07:02:53.801Z,22.91
2022-07-27T07:05:21.637Z,23.05
2022-07-27T07:07:49.173Z,23.34
2022-07-27T07:10:16.799Z,22.44
2022-07-27T07:12:44.301Z,23.20
2022-07-27T07:15:13.218Z,24.65
2022-07-27T07:17:41.193Z,25.47
2022-07-27T07:20:11.379Z,26.44
2022-07-27T07:22:38.867Z,28.24
2022-07-27T07:25:06.585Z,27.92
2022-07-27T07:27:34.194Z,28.63
2022-07-27T07:30:02.720Z,28.54
2022-07-27T07:32:33.509Z,26.23
2022-07-27T07:35:01.476Z,26.38
2022-07-27T07:37:31.649Z,27.74
2022-07-27T07:40:18.757Z,29.58
2022-07-27T07:42:53.733Z,31.22
2022-07-27T07:45:22.130Z,30.97
2022-07-27T07:47:50.495Z,31.94
2022-07-27T07:50:18.401Z,31.65
2022-07-27T07:52:48.507Z,32.78
2022-07-27T07:55:16.879Z,34.08
2022-07-27T07:57:44.389Z,34.88
2022-07-27T08:00:12.859Z,35.20
2022-07-27T08:02:45.489Z,34.59
2022-07-27T08:05:13.888Z,31.40
2022-07-27T08:07:41.710Z,32.58
2022-07-27T08:10:13.737Z,35.27
2022-07-27T08:12:43.827Z,37.68
2022-07-27T08:15:12.634Z,37.60
2022-07-27T08:17:40.578Z,36.31
2022-07-27T08:20:09.052Z,35.75
2022-07-27T08:22:36.958Z,35.69
2022-07-27T08:25:05.296Z,35.76
2022-07-27T08:27:40.357Z,35.23
2022-07-27T08:30:10.391Z,35.23
2022-07-27T08:32:53.225Z,33.66
2022-07-27T08:35:22.057Z,33.58
2022-07-27T08:37:50.060Z,33.38
2022-07-27T08:43:08.729Z,32.23
2022-07-27T08:45:37.152Z,31.62
2022-07-27T08:48:05.676Z,31.41
2022-07-27T08:50:34.827Z,31.33
2022-07-27T08:53:05.473Z,31.94
2022-07-27T08:55:34.620Z,32.69
2022-07-27T08:58:03.781Z,32.49
2022-07-27T09:00:34.311Z,31.30
2022-07-27T09:03:02.078Z,31.16
2022-07-27T09:05:37.325Z,30.91
2022-07-27T09:08:12.776Z,31.32
2022-07-27T09:10:40.727Z,31.30
2022-07-27T09:13:19.420Z,30.84
2022-07-27T09:16:16.372Z,32.17
2022-07-27T09:18:38.463Z,32.93
2022-07-27T09:21:11.260Z,30.74
2022-07-27T09:23:39.454Z,27.28
2022-07-27T09:26:29.072Z,25.51
2022-07-27T09:29:00.428Z,25.09
2022-07-27T09:31:29.885Z,25.76
2022-07-27T09:34:00.122Z,26.83
2022-07-27T09:36:29.200Z,27.97
2022-07-27T09:39:02.465Z,28.11
2022-07-27T09:41:44.083Z,27.88
2022-07-27T09:47:20.612Z,26.81
2022-07-27T09:49:48.188Z,29.12
2022-07-27T09:52:23.969Z,29.00
2022-07-27T09:54:52.056Z,30.29
2022-07-27T09:57:19.885Z,31.26
2022-07-27T09:59:47.713Z,29.80
2022-07-27T10:02:16.742Z,27.48
2022-07-27T10:04:45.151Z,26.77
2022-07-27T10:07:14.189Z,27.83
2022-07-27T10:09:42.172Z,29.34
2022-07-27T10:12:10.443Z,28.73
2022-07-27T10:14:37.958Z,27.21
2022-07-27T10:17:07.679Z,26.54
2022-07-27T10:19:42.917Z,25.82
2022-07-27T10:22:10.426Z,25.40
2022-07-27T10:24:37.971Z,26.57
2022-07-27T10:27:20.619Z,28.38
2022-07-27T10:29:49.072Z,27.66
2022-07-27T10:32:25.360Z,28.38
2022-07-27T10:34:54.475Z,27.09
2022-07-27T10:37:26.740Z,25.75
2022-07-27T10:40:15.957Z,26.72
2022-07-27T10:42:44.249Z,27.24
2022-07-27T10:45:14.062Z,29.61
2022-07-27T10:47:44.852Z,31.18
2022-07-27T10:50:32.298Z,32.38
2022-07-27T10:53:05.935Z,31.03
2022-07-27T10:55:52.494Z,30.58
2022-07-27T10:58:51.670Z,27.87
2022-07-27T11:01:21.536Z,28.04
2022-07-27T11:03:56.153Z,28.35
2022-07-27T11:06:55.484Z,28.86
2022-07-27T11:10:15.803Z,29.82
2022-07-27T11:12:04.365Z,29.24
2022-07-27T11:14:32.117Z,29.26
2022-07-27T11:17:39.893Z,29.78
2022-07-27T11:19:53.968Z,28.79
2022-07-27T11:25:19.804Z,30.42
2022-07-27T11:27:48.704Z,30.76
2022-07-27T11:30:23.461Z,29.87
2022-07-27T11:32:51.092Z,30.62
2022-07-27T11:35:20.174Z,28.70
2022-07-27T11:38:04.240Z,27.83
2022-07-27T11:43:39.005Z,25.43
2022-07-27T11:46:20.434Z,25.52
2022-07-27T11:49:06.180Z,25.25
2022-07-27T11:51:34.985Z,27.24
2022-07-27T11:54:05.898Z,28.37
2022-07-27T11:56:36.234Z,28.59
2022-07-27T11:59:10.390Z,28.86
2022-07-27T12:01:40.161Z,28.06
2022-07-27T12:04:12.862Z,29.14
2022-07-27T12:06:42.301Z,28.20
2022-07-27T12:09:14.641Z,27.30
2022-07-27T12:11:56.714Z,27.64
2022-07-27T12:14:36.852Z,27.54
2022-07-27T12:17:16.589Z,26.70
2022-07-27T12:19:50.749Z,26.80
2022-07-27T12:22:24.764Z,26.91
2022-07-27T12:24:54.406Z,27.36
2022-07-27T12:27:22.936Z,27.02
2022-07-27T12:30:02.440Z,25.94
2022-07-27T12:32:32.467Z,25.17
2022-07-27T12:35:00.814Z,25.47
2022-07-27T12:37:33.051Z,26.08
2022-07-27T12:40:01.845Z,28.31
2022-07-27T12:42:37.390Z,29.41
2022-07-27T12:45:16.665Z,28.59
2022-07-27T12:47:47.575Z,28.23
2022-07-27T12:50:16.906Z,28.50
2022-07-27T12:52:49.160Z,27.95
2022-07-27T12:55:18.978Z,27.43
2022-07-27T12:57:56.772Z,26.85
2022-07-27T13:00:32.700Z,27.46
2022-07-27T13:03:01.621Z,28.42
2022-07-27T13:05:29.187Z,29.66
2022-07-27T13:07:57.149Z,29.57
2022-07-27T13:10:26.214Z,28.93
2022-07-27T13:12:53.768Z,29.53
2022-07-27T13:15:21.385Z,27.63
2022-07-27T13:17:49.479Z,26.19
2022-07-27T13:20:18.444Z,25.12
2022-07-27T13:22:46.813Z,24.63
2022-07-27T13:25:17.316Z,24.39
2022-07-27T13:27:47.614Z,24.57
2022-07-27T13:30:16.878Z,24.69
2022-07-27T13:32:46.537Z,24.86
2022-07-27T13:35:14.714Z,24.57
2022-07-27T13:37:42.226Z,24.76
2022-07-27T13:40:10.750Z,24.86
2022-07-27T13:42:38.806Z,24.95
2022-07-27T13:45:10.975Z,24.81
2022-07-27T13:47:39.733Z,25.09
2022-07-27T13:50:16.716Z,24.83
2022-07-27T13:52:46.085Z,25.09
2022-07-27T13:55:14.043Z,25.04
2022-07-27T13:57:41.539Z,25.36
2022-07-27T14:00:11.969Z,24.99
2022-07-27T14:02:39.867Z,24.70
2022-07-27T14:05:10.002Z,25.42
2022-07-27T14:07:41.383Z,27.17
2022-07-27T14:10:29.446Z,28.40
2022-07-27T14:12:59.229Z,26.55
2022-07-27T14:15:28.395Z,27.09
2022-07-27T14:17:55.905Z,27.69
2022-07-27T14:20:23.888Z,27.94
2022-07-27T14:22:51.646Z,26.50
2022-07-27T14:25:19.254Z,25.54
2022-07-27T14:27:46.989Z,25.92
2022-07-27T14:30:20.310Z,26.38
2022-07-27T14:32:50.159Z,27.13
2022-07-27T14:35:18.231Z,27.00
2022-07-27T14:37:45.713Z,26.96
2022-07-27T14:40:14.369Z,26.96
2022-07-27T14:42:42.037Z,27.50
2022-07-27T14:45:10.224Z,28.71
2022-07-27T14:47:37.697Z,27.92
2022-07-27T14:50:09.570Z,27.07
2022-07-27T14:52:37.174Z,26.84
2022-07-27T14:55:05.138Z,27.03
2022-07-27T14:57:32.963Z,25.90
2022-07-27T15:00:00.488Z,25.06
2022-07-27T15:02:28.220Z,24.63
2022-07-27T15:04:55.716Z,24.63
2022-07-27T15:07:24.519Z,24.09
2022-07-27T15:09:52.002Z,23.84
2022-07-27T15:12:19.540Z,23.66
2022-07-27T15:14:47.064Z,24.42
2022-07-27T15:17:14.768Z,24.46
2022-07-27T15:19:42.232Z,24.26
2022-07-27T15:22:10.085Z,24.25
2022-07-27T15:24:39.002Z,24.31
2022-07-27T15:27:06.459Z,24.39
2022-07-27T15:29:33.978Z,24.31
2022-07-27T15:32:01.541Z,25.12
2022-07-27T15:34:29.312Z,25.78
2022-07-27T15:36:56.886Z,25.48
2022-07-27T15:39:24.924Z,24.77
2022-07-27T15:41:53.757Z,25.23
2022-07-27T15:44:22.461Z,25.69
2022-07-27T15:46:49.986Z,25.76
2022-07-27T15:49:18.284Z,25.36
2022-07-27T15:51:47.979Z,24.68
2022-07-27T15:54:15.527Z,25.00
2022-07-27T15:56:43.024Z,24.18
2022-07-27T15:59:12.631Z,24.66
2022-07-27T16:01:40.509Z,24.78
2022-07-27T16:04:08.753Z,25.07
2022-07-27T16:06:39.321Z,24.59
2022-07-27T16:09:09.110Z,24.28
2022-07-27T16:11:37.455Z,24.13
2022-07-27T16:14:04.981Z,23.66
2022-07-27T16:16:33.875Z,23.86
2022-07-27T16:19:12.688Z,23.91
2022-07-27T16:21:55.337Z,23.99
2022-07-27T16:24:23.637Z,23.99
2022-07-27T16:26:51.160Z,23.95
2022-07-27T16:29:18.736Z,23.93
2022-07-27T16:31:47.600Z,24.36
2022-07-27T16:34:15.184Z,24.87
2022-07-27T16:36:42.699Z,24.85
2022-07-27T16:39:10.404Z,24.60
2022-07-27T16:41:38.384Z,24.38
2022-07-27T16:44:06.360Z,23.98
2022-07-27T16:46:33.913Z,23.45
2022-07-27T16:49:02.862Z,23.54
2022-07-27T16:51:30.837Z,24.13
2022-07-27T16:53:58.318Z,24.21
2022-07-27T16:56:26.039Z,24.14
2022-07-27T16:58:53.497Z,23.40
2022-07-27T17:01:26.128Z,23.28
2022-07-27T17:03:54.699Z,23.28
2022-07-27T17:06:24.302Z,23.45
2022-07-27T17:08:51.834Z,23.83
2022-07-27T17:11:21.530Z,23.80
2022-07-27T17:13:49.792Z,23.72
2022-07-27T17:16:18.378Z,23.60
2022-07-27T17:18:46.109Z,23.65
2022-07-27T17:21:13.809Z,23.31
2022-07-27T17:23:43.968Z,23.36
2022-07-27T17:26:12.358Z,23.05
2022-07-27T17:28:40.748Z,22.98
2022-07-27T17:31:10.191Z,23.27
2022-07-27T17:33:38.548Z,23.34
2022-07-27T17:36:12.216Z,23.60
2022-07-27T17:38:43.588Z,23.46
2022-07-27T17:41:11.149Z,23.60
2022-07-27T17:43:39.385Z,23.20
2022-07-27T17:46:07.502Z,23.49
2022-07-27T17:48:35.381Z,23.20
2022-07-27T17:51:03.542Z,23.24
2022-07-27T17:53:31.200Z,23.21
2022-07-27T17:56:00.657Z,23.12
2022-07-27T17:58:30.446Z,23.58
2022-07-27T18:00:58.150Z,23.74
2022-07-27T18:03:25.750Z,23.56
2022-07-27T18:05:53.548Z,24.09
2022-07-27T18:08:21.075Z,24.67
2022-07-27T18:10:49.781Z,24.53
2022-07-27T18:13:18.764Z,24.52
2022-07-27T18:15:50.388Z,24.34
2022-07-27T18:18:20.553Z,24.34
2022-07-27T18:20:51.911Z,24.09
2022-07-27T18:23:20.450Z,24.07
2022-07-27T18:25:48.415Z,24.19
2022-07-27T18:28:16.962Z,23.74
2022-07-27T18:30:46.343Z,23.08
2022-07-27T18:33:14.450Z,22.85
2022-07-27T18:35:43.038Z,22.81
2022-07-27T18:38:10.824Z,22.89
2022-07-27T18:40:41.124Z,22.86
2022-07-27T18:43:10.582Z,22.95
2022-07-27T18:45:38.269Z,23.07
2022-07-27T18:48:08.791Z,23.03
2022-07-27T18:50:39.333Z,22.84
2022-07-27T18:53:07.396Z,22.61
2022-07-27T18:55:34.951Z,22.65
2022-07-27T18:58:02.479Z,22.01
2022-07-27T19:00:30.083Z,22.01
2022-07-27T19:02:58.523Z,21.81
2022-07-27T19:05:32.784Z,21.61
2022-07-27T19:08:11.357Z,21.40
2022-07-27T19:10:42.112Z,21.04
2022-07-27T19:13:10.324Z,20.74
2022-07-27T19:15:38.138Z,20.85
2022-07-27T19:18:06.245Z,20.73
2022-07-27T19:20:37.495Z,20.99
2022-07-27T19:23:05.154Z,20.73
2022-07-27T19:25:33.676Z,20.74
2022-07-27T19:28:01.847Z,20.84
2022-07-27T19:30:29.425Z,20.60
2022-07-27T19:32:57.340Z,20.60
2022-07-27T19:35:24.887Z,20.76
2022-07-27T19:37:53.738Z,20.85
2022-07-27T19:43:09.085Z,20.68
2022-07-27T19:45:37.313Z,20.66
2022-07-27T19:48:05.609Z,21.12
2022-07-27T19:50:33.570Z,21.20
2022-07-27T19:53:03.067Z,21.10
2022-07-27T19:55:30.605Z,21.16
2022-07-27T19:57:58.136Z,20.70
2022-07-27T20:00:25.965Z,20.77
2022-07-27T20:02:53.828Z,20.77
2022-07-27T20:05:22.563Z,20.17
2022-07-27T20:07:50.162Z,20.51
2022-07-27T20:10:19.106Z,20.65
2022-07-27T20:12:46.627Z,20.51
2022-07-27T20:15:14.295Z,20.10
2022-07-27T20:17:41.819Z,20.32
2022-07-27T20:20:11.547Z,19.94
2022-07-27T20:22:40.903Z,20.22
2022-07-27T20:25:10.460Z,20.50
2022-07-27T20:27:39.735Z,20.35
2022-07-27T20:30:08.945Z,20.36
2022-07-27T20:32:36.812Z,20.35
2022-07-27T20:35:05.362Z,20.05
2022-07-27T20:37:33.256Z,19.57
2022-07-27T20:40:00.980Z,19.96
2022-07-27T20:42:28.961Z,19.83
2022-07-27T20:44:57.827Z,19.83
2022-07-27T20:47:27.077Z,20.03
2022-07-27T20:49:56.251Z,20.22
2022-07-27T20:52:23.842Z,19.63
2022-07-27T20:54:51.448Z,19.42
2022-07-27T20:57:18.946Z,19.01
2022-07-27T20:59:46.449Z,19.20
2022-07-27T21:02:15.359Z,18.99
2022-07-27T21:04:42.941Z,19.07
2022-07-27T21:07:10.521Z,19.34
2022-07-27T21:09:38.116Z,19.15
2022-07-27T21:12:08.321Z,19.20
2022-07-27T21:14:35.827Z,19.30
2022-07-27T21:17:03.431Z,18.90
2022-07-27T21:19:33.011Z,18.82
2022-07-27T21:22:00.584Z,18.82
2022-07-27T21:24:28.863Z,19.01
2022-07-27T21:27:00.915Z,18.84
2022-07-27T21:29:32.257Z,18.86
2022-07-27T21:31:59.819Z,18.65
2022-07-27T21:34:27.678Z,19.02
2022-07-27T21:36:56.522Z,18.88
2022-07-27T21:39:24.897Z,19.04
2022-07-27T21:41:52.492Z,19.00
2022-07-27T21:44:19.952Z,18.59
2022-07-27T21:46:48.359Z,18.82
2022-07-27T21:49:15.986Z,18.40
2022-07-27T21:51:43.518Z,18.07
2022-07-27T21:54:12.535Z,17.79
2022-07-27T21:56:41.717Z,17.88
2022-07-27T21:59:10.002Z,17.93
2022-07-27T22:01:37.575Z,17.82
2022-07-27T22:04:05.549Z,17.68
2022-07-27T22:06:33.064Z,17.68
2022-07-27T22:09:01.020Z,17.61
2022-07-27T22:11:29.864Z,17.54
2022-07-27T22:13:57.463Z,17.75
2022-07-27T22:16:25.050Z,17.69
2022-07-27T22:18:52.662Z,17.73
2022-07-27T22:21:21.602Z,17.74
2022-07-27T22:23:49.301Z,17.68
2022-07-27T22:26:17.379Z,17.38
2022-07-27T22:28:46.243Z,17.41
2022-07-27T22:31:22.777Z,17.25
2022-07-27T22:33:51.222Z,17.02
2022-07-27T22:36:18.750Z,17.01
2022-07-27T22:38:46.313Z,17.11
2022-07-27T22:41:13.861Z,17.19
2022-07-27T22:43:41.829Z,17.12
2022-07-27T22:46:10.875Z,17.10
2022-07-27T22:48:38.908Z,17.16
2022-07-27T22:51:07.652Z,17.14
2022-07-27T22:53:35.404Z,17.15
2022-07-27T22:56:02.885Z,16.89
2022-07-27T22:58:30.374Z,16.88
2022-07-27T23:00:59.877Z,17.11
2022-07-27T23:03:28.946Z,16.80
2022-07-27T23:05:56.428Z,16.96
2022-07-27T23:08:24.036Z,16.83
2022-07-27T23:10:51.523Z,17.21
2022-07-27T23:13:20.419Z,17.26
2022-07-27T23:15:48.475Z,16.77
2022-07-27T23:18:17.154Z,16.93
2022-07-27T23:20:46.398Z,17.15
2022-07-27T23:23:16.448Z,17.15
2022-07-27T23:25:44.462Z,17.10
2022-07-27T23:28:12.258Z,17.06
2022-07-27T23:30:39.925Z,16.85
2022-07-27T23:33:07.476Z,16.68
2022-07-27T23:35:35.114Z,16.53
2022-07-27T23:38:04.024Z,16.61
2022-07-27T23:40:31.720Z,17.09
2022-07-27T23:42:59.213Z,17.28
2022-07-27T23:45:27.362Z,17.15
2022-07-27T23:47:55.196Z,17.10
2022-07-27T23:50:23.063Z,17.20
2022-07-27T23:52:50.627Z,17.15
2022-07-27T23:55:19.544Z,17.22
2022-07-27T23:57:47.297Z,17.10
